sensor_id;sensor_type;location;lat;lon;timestamp;temperature;humidity
18408;DHT22;9330;52.210;21.174;2022-10-13T00:00:50;4.30;99.90
18408;DHT22;9330;52.210;21.174;2022-10-13T00:03:17;4.30;99.90
18408;DHT22;9330;52.210;21.174;2022-10-13T00:05:46;4.30;99.90
18408;DHT22;9330;52.210;21.174;2022-10-13T00:08:15;4.20;99.90
18408;DHT22;9330;52.210;21.174;2022-10-13T00:10:43;4.30;99.90
18408;DHT22;9330;52.210;21.174;2022-10-13T00:13:11;4.20;99.90
18408;DHT22;9330;52.210;21.174;2022-10-13T00:15:41;4.20;99.90
18408;DHT22;9330;52.210;21.174;2022-10-13T00:18:09;4.10;99.90
18408;DHT22;9330;52.210;21.174;2022-10-13T00:20:40;4.10;99.90
18408;DHT22;9330;52.210;21.174;2022-10-13T00:23:08;4.10;99.90
18408;DHT22;9330;52.210;21.174;2022-10-13T00:25:39;4.20;99.90
18408;DHT22;9330;52.210;21.174;2022-10-13T00:28:06;4.00;99.90
18408;DHT22;9330;52.210;21.174;2022-10-13T00:30:33;3.90;99.90
18408;DHT22;9330;52.210;21.174;2022-10-13T00:33:02;4.00;99.90
18408;DHT22;9330;52.210;21.174;2022-10-13T00:35:29;3.90;99.90
18408;DHT22;9330;52.210;21.174;2022-10-13T00:37:56;3.90;99.90
18408;DHT22;9330;52.210;21.174;2022-10-13T00:40:23;3.90;99.90
18408;DHT22;9330;52.210;21.174;2022-10-13T00:42:50;3.90;99.90
18408;DHT22;9330;52.210;21.174;2022-10-13T00:45:23;3.80;99.90
18408;DHT22;9330;52.210;21.174;2022-10-13T00:47:53;3.80;99.90
18408;DHT22;9330;52.210;21.174;2022-10-13T00:50:27;3.80;99.90
18408;DHT22;9330;52.210;21.174;2022-10-13T00:52:55;3.70;99.90
18408;DHT22;9330;52.210;21.174;2022-10-13T00:55:25;3.80;99.90
18408;DHT22;9330;52.210;21.174;2022-10-13T00:57:53;3.60;99.90
18408;DHT22;9330;52.210;21.174;2022-10-13T01:00:23;3.70;99.90
18408;DHT22;9330;52.210;21.174;2022-10-13T01:02:50;3.70;99.90
18408;DHT22;9330;52.210;21.174;2022-10-13T01:05:19;3.70;99.90
18408;DHT22;9330;52.210;21.174;2022-10-13T01:07:49;3.60;99.90
18408;DHT22;9330;52.210;21.174;2022-10-13T01:10:18;3.60;99.90
18408;DHT22;9330;52.210;21.174;2022-10-13T01:12:58;3.60;99.90
18408;DHT22;9330;52.210;21.174;2022-10-13T01:15:30;3.60;99.90
18408;DHT22;9330;52.210;21.174;2022-10-13T01:18:07;3.50;99.90
18408;DHT22;9330;52.210;21.174;2022-10-13T01:21:17;3.60;99.90
18408;DHT22;9330;52.210;21.174;2022-10-13T01:24:01;3.40;99.90
18408;DHT22;9330;52.210;21.174;2022-10-13T01:30:25;3.40;99.90
18408;DHT22;9330;52.210;21.174;2022-10-13T01:33:16;3.40;99.90
18408;DHT22;9330;52.210;21.174;2022-10-13T01:36:05;3.40;99.90
18408;DHT22;9330;52.210;21.174;2022-10-13T01:38:46;3.40;99.90
18408;DHT22;9330;52.210;21.174;2022-10-13T01:41:23;3.50;99.90
18408;DHT22;9330;52.210;21.174;2022-10-13T01:43:56;3.40;99.90
18408;DHT22;9330;52.210;21.174;2022-10-13T01:46:29;3.50;99.90
18408;DHT22;9330;52.210;21.174;2022-10-13T01:49:01;3.40;99.90
18408;DHT22;9330;52.210;21.174;2022-10-13T01:51:30;3.40;99.90
18408;DHT22;9330;52.210;21.174;2022-10-13T01:53:58;3.40;99.90
18408;DHT22;9330;52.210;21.174;2022-10-13T01:56:25;3.50;99.90
18408;DHT22;9330;52.210;21.174;2022-10-13T01:58:55;3.30;99.90
18408;DHT22;9330;52.210;21.174;2022-10-13T02:01:41;3.30;99.90
18408;DHT22;9330;52.210;21.174;2022-10-13T02:04:20;3.30;99.90
18408;DHT22;9330;52.210;21.174;2022-10-13T02:06:52;3.30;99.90
18408;DHT22;9330;52.210;21.174;2022-10-13T02:09:25;3.20;99.90
18408;DHT22;9330;52.210;21.174;2022-10-13T02:11:57;3.30;99.90
18408;DHT22;9330;52.210;21.174;2022-10-13T02:14:28;3.20;99.90
18408;DHT22;9330;52.210;21.174;2022-10-13T02:17:00;3.20;99.90
18408;DHT22;9330;52.210;21.174;2022-10-13T02:19:29;3.30;99.90
18408;DHT22;9330;52.210;21.174;2022-10-13T02:21:58;3.10;99.90
18408;DHT22;9330;52.210;21.174;2022-10-13T02:24:26;3.20;99.90
18408;DHT22;9330;52.210;21.174;2022-10-13T02:26:53;3.10;99.90
18408;DHT22;9330;52.210;21.174;2022-10-13T02:29:21;3.00;99.90
18408;DHT22;9330;52.210;21.174;2022-10-13T02:31:48;3.10;99.90
18408;DHT22;9330;52.210;21.174;2022-10-13T02:34:17;3.30;99.90
18408;DHT22;9330;52.210;21.174;2022-10-13T02:36:44;3.30;99.90
18408;DHT22;9330;52.210;21.174;2022-10-13T02:39:11;3.00;99.90
18408;DHT22;9330;52.210;21.174;2022-10-13T02:41:38;3.00;99.90
18408;DHT22;9330;52.210;21.174;2022-10-13T02:44:06;3.20;99.90
18408;DHT22;9330;52.210;21.174;2022-10-13T02:46:33;3.00;99.90
18408;DHT22;9330;52.210;21.174;2022-10-13T02:49:00;3.00;99.90
18408;DHT22;9330;52.210;21.174;2022-10-13T02:51:28;3.20;99.90
18408;DHT22;9330;52.210;21.174;2022-10-13T02:53:55;3.00;99.90
18408;DHT22;9330;52.210;21.174;2022-10-13T02:56:22;2.90;99.90
18408;DHT22;9330;52.210;21.174;2022-10-13T02:58:49;2.90;99.90
18408;DHT22;9330;52.210;21.174;2022-10-13T03:01:16;3.10;99.90
18408;DHT22;9330;52.210;21.174;2022-10-13T03:03:43;3.00;99.90
18408;DHT22;9330;52.210;21.174;2022-10-13T03:06:10;2.90;99.90
18408;DHT22;9330;52.210;21.174;2022-10-13T03:08:38;3.10;99.90
18408;DHT22;9330;52.210;21.174;2022-10-13T03:11:05;2.80;99.90
18408;DHT22;9330;52.210;21.174;2022-10-13T03:13:32;2.80;99.90
18408;DHT22;9330;52.210;21.174;2022-10-13T03:15:59;2.80;99.90
18408;DHT22;9330;52.210;21.174;2022-10-13T03:18:26;2.80;99.90
18408;DHT22;9330;52.210;21.174;2022-10-13T03:20:57;2.70;99.90
18408;DHT22;9330;52.210;21.174;2022-10-13T03:23:24;2.80;99.90
18408;DHT22;9330;52.210;21.174;2022-10-13T03:25:54;2.70;99.90
18408;DHT22;9330;52.210;21.174;2022-10-13T03:28:21;2.70;99.90
18408;DHT22;9330;52.210;21.174;2022-10-13T03:30:48;2.80;99.90
18408;DHT22;9330;52.210;21.174;2022-10-13T03:33:15;2.70;99.90
18408;DHT22;9330;52.210;21.174;2022-10-13T03:35:42;2.70;99.90
18408;DHT22;9330;52.210;21.174;2022-10-13T03:38:09;2.80;99.90
18408;DHT22;9330;52.210;21.174;2022-10-13T03:40:36;2.70;99.90
18408;DHT22;9330;52.210;21.174;2022-10-13T03:43:04;2.60;99.90
18408;DHT22;9330;52.210;21.174;2022-10-13T03:45:31;2.70;99.90
18408;DHT22;9330;52.210;21.174;2022-10-13T03:47:58;2.50;99.90
18408;DHT22;9330;52.210;21.174;2022-10-13T03:50:25;2.50;99.90
18408;DHT22;9330;52.210;21.174;2022-10-13T03:52:52;2.50;99.90
18408;DHT22;9330;52.210;21.174;2022-10-13T03:55:19;2.50;99.90
18408;DHT22;9330;52.210;21.174;2022-10-13T03:57:46;2.70;99.90
18408;DHT22;9330;52.210;21.174;2022-10-13T04:00:15;2.50;99.90
18408;DHT22;9330;52.210;21.174;2022-10-13T04:02:42;2.50;99.90
18408;DHT22;9330;52.210;21.174;2022-10-13T04:05:09;2.40;99.90
18408;DHT22;9330;52.210;21.174;2022-10-13T04:07:36;2.50;99.90
18408;DHT22;9330;52.210;21.174;2022-10-13T04:10:03;2.40;99.90
18408;DHT22;9330;52.210;21.174;2022-10-13T04:12:30;2.50;99.90
18408;DHT22;9330;52.210;21.174;2022-10-13T04:14:57;2.40;99.90
18408;DHT22;9330;52.210;21.174;2022-10-13T04:17:25;2.40;99.90
18408;DHT22;9330;52.210;21.174;2022-10-13T04:19:52;2.40;99.90
18408;DHT22;9330;52.210;21.174;2022-10-13T04:22:19;2.40;99.90
18408;DHT22;9330;52.210;21.174;2022-10-13T04:24:46;2.40;99.90
18408;DHT22;9330;52.210;21.174;2022-10-13T04:27:13;2.50;99.90
18408;DHT22;9330;52.210;21.174;2022-10-13T04:29:41;2.50;99.90
18408;DHT22;9330;52.210;21.174;2022-10-13T04:32:08;2.30;99.90
18408;DHT22;9330;52.210;21.174;2022-10-13T04:34:37;2.30;99.90
18408;DHT22;9330;52.210;21.174;2022-10-13T04:37:03;2.50;99.90
18408;DHT22;9330;52.210;21.174;2022-10-13T04:39:31;2.30;99.90
18408;DHT22;9330;52.210;21.174;2022-10-13T04:41:58;2.40;99.90
18408;DHT22;9330;52.210;21.174;2022-10-13T04:44:25;2.30;99.90
18408;DHT22;9330;52.210;21.174;2022-10-13T04:46:52;2.30;99.90
18408;DHT22;9330;52.210;21.174;2022-10-13T04:49:19;2.30;99.90
18408;DHT22;9330;52.210;21.174;2022-10-13T04:51:47;2.30;99.90
18408;DHT22;9330;52.210;21.174;2022-10-13T04:54:14;2.30;99.90
18408;DHT22;9330;52.210;21.174;2022-10-13T04:56:43;2.30;99.90
18408;DHT22;9330;52.210;21.174;2022-10-13T04:59:10;2.40;99.90
18408;DHT22;9330;52.210;21.174;2022-10-13T05:01:37;2.50;99.90
18408;DHT22;9330;52.210;21.174;2022-10-13T05:04:04;2.30;99.90
18408;DHT22;9330;52.210;21.174;2022-10-13T05:06:33;2.40;99.90
18408;DHT22;9330;52.210;21.174;2022-10-13T05:09:02;2.30;99.90
18408;DHT22;9330;52.210;21.174;2022-10-13T05:11:30;2.30;99.90
18408;DHT22;9330;52.210;21.174;2022-10-13T05:13:58;2.40;99.90
18408;DHT22;9330;52.210;21.174;2022-10-13T05:16:26;2.30;99.90
18408;DHT22;9330;52.210;21.174;2022-10-13T05:18:55;2.50;99.90
18408;DHT22;9330;52.210;21.174;2022-10-13T05:21:23;2.30;99.90
18408;DHT22;9330;52.210;21.174;2022-10-13T05:23:51;2.40;99.90
18408;DHT22;9330;52.210;21.174;2022-10-13T05:26:23;2.40;99.90
18408;DHT22;9330;52.210;21.174;2022-10-13T05:28:53;2.60;99.90
18408;DHT22;9330;52.210;21.174;2022-10-13T05:31:22;2.40;99.90
18408;DHT22;9330;52.210;21.174;2022-10-13T05:33:50;2.60;99.90
18408;DHT22;9330;52.210;21.174;2022-10-13T05:36:19;2.40;99.90
18408;DHT22;9330;52.210;21.174;2022-10-13T05:38:49;2.40;99.90
18408;DHT22;9330;52.210;21.174;2022-10-13T05:41:17;2.50;99.90
18408;DHT22;9330;52.210;21.174;2022-10-13T05:43:46;2.60;99.90
18408;DHT22;9330;52.210;21.174;2022-10-13T05:46:13;2.50;99.90
18408;DHT22;9330;52.210;21.174;2022-10-13T05:48:40;2.40;99.90
18408;DHT22;9330;52.210;21.174;2022-10-13T05:51:11;2.50;99.90
18408;DHT22;9330;52.210;21.174;2022-10-13T05:53:40;2.60;99.90
18408;DHT22;9330;52.210;21.174;2022-10-13T05:56:11;2.70;99.90
18408;DHT22;9330;52.210;21.174;2022-10-13T05:58:43;2.80;99.90
18408;DHT22;9330;52.210;21.174;2022-10-13T06:01:16;2.90;99.90
18408;DHT22;9330;52.210;21.174;2022-10-13T06:03:45;2.90;99.90
18408;DHT22;9330;52.210;21.174;2022-10-13T06:06:12;2.80;99.90
18408;DHT22;9330;52.210;21.174;2022-10-13T06:08:39;2.90;99.90
18408;DHT22;9330;52.210;21.174;2022-10-13T06:11:07;2.90;99.90
18408;DHT22;9330;52.210;21.174;2022-10-13T06:13:34;3.00;99.90
18408;DHT22;9330;52.210;21.174;2022-10-13T06:16:01;3.10;99.90
18408;DHT22;9330;52.210;21.174;2022-10-13T06:18:30;3.20;99.90
18408;DHT22;9330;52.210;21.174;2022-10-13T06:20:56;3.30;99.90
18408;DHT22;9330;52.210;21.174;2022-10-13T06:23:23;3.70;99.90
18408;DHT22;9330;52.210;21.174;2022-10-13T06:25:51;3.70;99.90
18408;DHT22;9330;52.210;21.174;2022-10-13T06:28:19;3.90;99.90
18408;DHT22;9330;52.210;21.174;2022-10-13T06:30:47;4.10;99.90
18408;DHT22;9330;52.210;21.174;2022-10-13T06:33:18;4.30;99.90
18408;DHT22;9330;52.210;21.174;2022-10-13T06:35:48;4.80;99.90
18408;DHT22;9330;52.210;21.174;2022-10-13T06:38:15;4.70;99.90
18408;DHT22;9330;52.210;21.174;2022-10-13T06:40:42;4.90;99.90
18408;DHT22;9330;52.210;21.174;2022-10-13T06:43:09;5.20;99.90
18408;DHT22;9330;52.210;21.174;2022-10-13T06:45:36;5.30;99.90
18408;DHT22;9330;52.210;21.174;2022-10-13T06:48:03;5.30;99.90
18408;DHT22;9330;52.210;21.174;2022-10-13T06:50:31;5.30;99.90
18408;DHT22;9330;52.210;21.174;2022-10-13T06:52:59;5.80;99.90
18408;DHT22;9330;52.210;21.174;2022-10-13T06:55:26;5.90;99.90
18408;DHT22;9330;52.210;21.174;2022-10-13T06:57:53;6.10;99.90
18408;DHT22;9330;52.210;21.174;2022-10-13T07:00:20;6.40;99.90
18408;DHT22;9330;52.210;21.174;2022-10-13T07:02:49;6.50;99.90
18408;DHT22;9330;52.210;21.174;2022-10-13T07:05:17;6.70;99.90
18408;DHT22;9330;52.210;21.174;2022-10-13T07:07:44;6.80;99.90
18408;DHT22;9330;52.210;21.174;2022-10-13T07:10:12;7.20;99.90
18408;DHT22;9330;52.210;21.174;2022-10-13T07:12:39;7.10;99.90
18408;DHT22;9330;52.210;21.174;2022-10-13T07:15:07;7.30;99.90
18408;DHT22;9330;52.210;21.174;2022-10-13T07:17:34;7.40;99.90
18408;DHT22;9330;52.210;21.174;2022-10-13T07:20:01;7.50;99.90
18408;DHT22;9330;52.210;21.174;2022-10-13T07:22:29;7.70;99.90
18408;DHT22;9330;52.210;21.174;2022-10-13T07:24:56;7.80;99.90
18408;DHT22;9330;52.210;21.174;2022-10-13T07:27:25;7.90;99.90
18408;DHT22;9330;52.210;21.174;2022-10-13T07:29:52;8.20;99.90
18408;DHT22;9330;52.210;21.174;2022-10-13T07:32:19;8.30;99.90
18408;DHT22;9330;52.210;21.174;2022-10-13T07:34:46;8.50;99.90
18408;DHT22;9330;52.210;21.174;2022-10-13T07:37:13;8.70;99.90
18408;DHT22;9330;52.210;21.174;2022-10-13T07:39:40;8.80;99.90
18408;DHT22;9330;52.210;21.174;2022-10-13T07:42:07;8.90;99.90
18408;DHT22;9330;52.210;21.174;2022-10-13T07:44:35;9.20;99.90
18408;DHT22;9330;52.210;21.174;2022-10-13T07:47:02;9.30;99.90
18408;DHT22;9330;52.210;21.174;2022-10-13T07:49:29;9.40;99.90
18408;DHT22;9330;52.210;21.174;2022-10-13T07:51:56;9.50;99.90
18408;DHT22;9330;52.210;21.174;2022-10-13T07:54:23;9.70;99.90
18408;DHT22;9330;52.210;21.174;2022-10-13T07:56:51;9.90;99.90
18408;DHT22;9330;52.210;21.174;2022-10-13T07:59:18;10.20;99.90
18408;DHT22;9330;52.210;21.174;2022-10-13T08:01:47;10.40;99.90
18408;DHT22;9330;52.210;21.174;2022-10-13T08:04:14;10.80;99.90
18408;DHT22;9330;52.210;21.174;2022-10-13T08:06:41;11.00;99.90
18408;DHT22;9330;52.210;21.174;2022-10-13T08:09:08;11.30;99.90
18408;DHT22;9330;52.210;21.174;2022-10-13T08:11:35;11.50;99.90
18408;DHT22;9330;52.210;21.174;2022-10-13T08:14:03;11.90;99.90
18408;DHT22;9330;52.210;21.174;2022-10-13T08:16:30;12.10;99.90
18408;DHT22;9330;52.210;21.174;2022-10-13T08:18:59;12.30;99.90
18408;DHT22;9330;52.210;21.174;2022-10-13T08:21:27;12.40;99.90
18408;DHT22;9330;52.210;21.174;2022-10-13T08:23:54;12.60;99.90
18408;DHT22;9330;52.210;21.174;2022-10-13T08:26:23;12.70;99.90
18408;DHT22;9330;52.210;21.174;2022-10-13T08:28:51;12.90;99.90
18408;DHT22;9330;52.210;21.174;2022-10-13T08:31:18;13.10;99.90
18408;DHT22;9330;52.210;21.174;2022-10-13T08:33:45;13.20;99.90
18408;DHT22;9330;52.210;21.174;2022-10-13T08:36:14;13.40;99.90
18408;DHT22;9330;52.210;21.174;2022-10-13T08:38:42;13.60;99.90
18408;DHT22;9330;52.210;21.174;2022-10-13T08:41:17;13.80;99.90
18408;DHT22;9330;52.210;21.174;2022-10-13T08:43:48;14.10;99.90
18408;DHT22;9330;52.210;21.174;2022-10-13T08:46:20;14.10;99.90
18408;DHT22;9330;52.210;21.174;2022-10-13T08:48:50;14.30;99.90
18408;DHT22;9330;52.210;21.174;2022-10-13T08:51:19;14.50;99.90
18408;DHT22;9330;52.210;21.174;2022-10-13T08:53:46;14.40;99.90
18408;DHT22;9330;52.210;21.174;2022-10-13T08:56:17;14.30;99.90
18408;DHT22;9330;52.210;21.174;2022-10-13T08:58:46;14.20;99.90
18408;DHT22;9330;52.210;21.174;2022-10-13T09:01:17;14.00;99.90
18408;DHT22;9330;52.210;21.174;2022-10-13T09:03:49;13.80;99.90
18408;DHT22;9330;52.210;21.174;2022-10-13T09:06:22;13.80;99.90
18408;DHT22;9330;52.210;21.174;2022-10-13T09:08:55;13.80;99.90
18408;DHT22;9330;52.210;21.174;2022-10-13T09:11:26;13.70;99.90
18408;DHT22;9330;52.210;21.174;2022-10-13T09:13:55;13.70;99.90
18408;DHT22;9330;52.210;21.174;2022-10-13T09:16:31;13.70;99.90
18408;DHT22;9330;52.210;21.174;2022-10-13T09:19:13;13.70;99.90
18408;DHT22;9330;52.210;21.174;2022-10-13T09:21:42;13.80;99.90
18408;DHT22;9330;52.210;21.174;2022-10-13T09:24:13;13.70;99.90
18408;DHT22;9330;52.210;21.174;2022-10-13T09:26:41;13.70;99.90
18408;DHT22;9330;52.210;21.174;2022-10-13T09:29:10;13.60;99.90
18408;DHT22;9330;52.210;21.174;2022-10-13T09:31:37;13.60;99.90
18408;DHT22;9330;52.210;21.174;2022-10-13T09:34:13;13.60;99.90
18408;DHT22;9330;52.210;21.174;2022-10-13T09:36:56;13.50;99.90
18408;DHT22;9330;52.210;21.174;2022-10-13T09:39:23;13.60;99.90
18408;DHT22;9330;52.210;21.174;2022-10-13T09:41:50;13.50;99.90
18408;DHT22;9330;52.210;21.174;2022-10-13T09:44:26;13.60;99.90
18408;DHT22;9330;52.210;21.174;2022-10-13T09:46:55;13.60;99.90
18408;DHT22;9330;52.210;21.174;2022-10-13T09:49:31;13.70;99.90
18408;DHT22;9330;52.210;21.174;2022-10-13T09:52:03;13.80;99.90
18408;DHT22;9330;52.210;21.174;2022-10-13T09:54:44;13.80;99.90
18408;DHT22;9330;52.210;21.174;2022-10-13T09:57:16;13.80;99.90
18408;DHT22;9330;52.210;21.174;2022-10-13T09:59:47;13.80;99.90
18408;DHT22;9330;52.210;21.174;2022-10-13T10:02:21;13.90;99.90
18408;DHT22;9330;52.210;21.174;2022-10-13T10:04:50;13.90;99.90
18408;DHT22;9330;52.210;21.174;2022-10-13T10:07:21;13.90;99.90
18408;DHT22;9330;52.210;21.174;2022-10-13T10:09:53;13.90;99.90
18408;DHT22;9330;52.210;21.174;2022-10-13T10:12:25;14.00;99.90
18408;DHT22;9330;52.210;21.174;2022-10-13T10:14:53;14.00;99.90
18408;DHT22;9330;52.210;21.174;2022-10-13T10:17:24;14.00;99.90
18408;DHT22;9330;52.210;21.174;2022-10-13T10:20:02;14.00;99.90
18408;DHT22;9330;52.210;21.174;2022-10-13T10:22:39;14.10;99.90
18408;DHT22;9330;52.210;21.174;2022-10-13T10:25:21;14.20;99.90
18408;DHT22;9330;52.210;21.174;2022-10-13T10:28:11;14.20;99.90
18408;DHT22;9330;52.210;21.174;2022-10-13T10:30:45;14.20;99.90
18408;DHT22;9330;52.210;21.174;2022-10-13T10:33:18;14.20;99.90
18408;DHT22;9330;52.210;21.174;2022-10-13T10:35:49;14.30;99.90
18408;DHT22;9330;52.210;21.174;2022-10-13T10:38:28;14.30;99.90
18408;DHT22;9330;52.210;21.174;2022-10-13T10:41:06;14.30;99.90
18408;DHT22;9330;52.210;21.174;2022-10-13T10:43:48;14.40;99.90
18408;DHT22;9330;52.210;21.174;2022-10-13T10:46:20;14.30;99.90
18408;DHT22;9330;52.210;21.174;2022-10-13T10:48:49;14.40;99.90
18408;DHT22;9330;52.210;21.174;2022-10-13T10:51:18;14.30;99.90
18408;DHT22;9330;52.210;21.174;2022-10-13T10:54:05;14.30;99.90
18408;DHT22;9330;52.210;21.174;2022-10-13T10:56:38;14.40;99.90
18408;DHT22;9330;52.210;21.174;2022-10-13T10:59:20;14.40;99.90
18408;DHT22;9330;52.210;21.174;2022-10-13T11:01:59;14.40;99.90
18408;DHT22;9330;52.210;21.174;2022-10-13T11:04:33;14.40;99.90
18408;DHT22;9330;52.210;21.174;2022-10-13T11:07:02;14.40;99.90
18408;DHT22;9330;52.210;21.174;2022-10-13T11:10:01;14.40;99.90
18408;DHT22;9330;52.210;21.174;2022-10-13T11:12:44;14.40;99.90
18408;DHT22;9330;52.210;21.174;2022-10-13T11:15:13;14.40;99.90
18408;DHT22;9330;52.210;21.174;2022-10-13T11:17:41;14.50;99.90
18408;DHT22;9330;52.210;21.174;2022-10-13T11:23:29;14.40;99.90
18408;DHT22;9330;52.210;21.174;2022-10-13T11:26:19;14.40;99.90
18408;DHT22;9330;52.210;21.174;2022-10-13T11:28:54;14.50;99.90
18408;DHT22;9330;52.210;21.174;2022-10-13T11:31:30;14.50;99.90
18408;DHT22;9330;52.210;21.174;2022-10-13T11:33:59;14.50;99.90
18408;DHT22;9330;52.210;21.174;2022-10-13T11:36:31;14.50;99.90
18408;DHT22;9330;52.210;21.174;2022-10-13T11:39:10;14.70;99.90
18408;DHT22;9330;52.210;21.174;2022-10-13T11:41:48;14.80;99.90
18408;DHT22;9330;52.210;21.174;2022-10-13T11:44:22;14.80;99.90
18408;DHT22;9330;52.210;21.174;2022-10-13T11:47:00;15.00;99.90
18408;DHT22;9330;52.210;21.174;2022-10-13T11:49:44;15.10;99.90
18408;DHT22;9330;52.210;21.174;2022-10-13T11:52:26;15.20;99.90
18408;DHT22;9330;52.210;21.174;2022-10-13T11:55:00;15.30;99.90
18408;DHT22;9330;52.210;21.174;2022-10-13T11:57:29;15.50;99.90
18408;DHT22;9330;52.210;21.174;2022-10-13T11:59:57;15.70;99.90
18408;DHT22;9330;52.210;21.174;2022-10-13T12:02:25;15.90;99.90
18408;DHT22;9330;52.210;21.174;2022-10-13T12:05:01;16.10;99.90
18408;DHT22;9330;52.210;21.174;2022-10-13T12:07:33;16.20;99.80
18408;DHT22;9330;52.210;21.174;2022-10-13T12:10:04;16.20;99.80
18408;DHT22;9330;52.210;21.174;2022-10-13T12:12:33;16.10;99.90
18408;DHT22;9330;52.210;21.174;2022-10-13T12:15:00;15.90;99.90
18408;DHT22;9330;52.210;21.174;2022-10-13T12:17:29;15.70;99.50
18408;DHT22;9330;52.210;21.174;2022-10-13T12:19:58;15.60;99.90
18408;DHT22;9330;52.210;21.174;2022-10-13T12:22:26;15.40;99.90
18408;DHT22;9330;52.210;21.174;2022-10-13T12:24:58;15.30;99.90
18408;DHT22;9330;52.210;21.174;2022-10-13T12:27:26;15.30;99.90
18408;DHT22;9330;52.210;21.174;2022-10-13T12:29:58;15.20;99.90
18408;DHT22;9330;52.210;21.174;2022-10-13T12:32:27;15.10;99.90
18408;DHT22;9330;52.210;21.174;2022-10-13T12:34:54;15.00;99.80
18408;DHT22;9330;52.210;21.174;2022-10-13T12:37:26;14.90;99.90
18408;DHT22;9330;52.210;21.174;2022-10-13T12:39:56;14.90;99.90
18408;DHT22;9330;52.210;21.174;2022-10-13T12:42:26;14.70;99.90
18408;DHT22;9330;52.210;21.174;2022-10-13T12:44:55;14.70;99.90
18408;DHT22;9330;52.210;21.174;2022-10-13T12:47:38;14.60;99.90
18408;DHT22;9330;52.210;21.174;2022-10-13T12:50:31;14.60;99.90
18408;DHT22;9330;52.210;21.174;2022-10-13T12:53:08;14.60;99.90
18408;DHT22;9330;52.210;21.174;2022-10-13T12:55:45;14.60;99.90
18408;DHT22;9330;52.210;21.174;2022-10-13T12:58:20;14.50;99.90
18408;DHT22;9330;52.210;21.174;2022-10-13T13:03:44;14.70;99.90
18408;DHT22;9330;52.210;21.174;2022-10-13T13:06:23;14.70;99.90
18408;DHT22;9330;52.210;21.174;2022-10-13T13:09:22;14.60;99.90
18408;DHT22;9330;52.210;21.174;2022-10-13T13:12:03;14.60;99.90
18408;DHT22;9330;52.210;21.174;2022-10-13T13:14:35;14.70;99.90
18408;DHT22;9330;52.210;21.174;2022-10-13T13:17:05;14.60;99.90
18408;DHT22;9330;52.210;21.174;2022-10-13T13:19:35;14.60;99.90
18408;DHT22;9330;52.210;21.174;2022-10-13T13:22:02;14.60;99.90
18408;DHT22;9330;52.210;21.174;2022-10-13T13:24:30;14.60;99.90
18408;DHT22;9330;52.210;21.174;2022-10-13T13:26:57;14.50;99.90
18408;DHT22;9330;52.210;21.174;2022-10-13T13:29:23;14.50;99.90
18408;DHT22;9330;52.210;21.174;2022-10-13T13:31:50;14.50;99.90
18408;DHT22;9330;52.210;21.174;2022-10-13T13:34:18;14.50;99.90
18408;DHT22;9330;52.210;21.174;2022-10-13T13:36:47;14.50;99.90
18408;DHT22;9330;52.210;21.174;2022-10-13T13:39:15;14.50;99.90
18408;DHT22;9330;52.210;21.174;2022-10-13T13:41:43;14.40;99.90
18408;DHT22;9330;52.210;21.174;2022-10-13T13:44:11;14.50;99.90
18408;DHT22;9330;52.210;21.174;2022-10-13T13:46:39;14.50;99.90
18408;DHT22;9330;52.210;21.174;2022-10-13T13:49:07;14.60;99.90
18408;DHT22;9330;52.210;21.174;2022-10-13T13:51:35;14.40;99.90
18408;DHT22;9330;52.210;21.174;2022-10-13T13:54:03;14.40;99.90
18408;DHT22;9330;52.210;21.174;2022-10-13T13:56:30;14.50;99.90
18408;DHT22;9330;52.210;21.174;2022-10-13T13:58:57;14.40;99.90
18408;DHT22;9330;52.210;21.174;2022-10-13T14:01:24;14.40;99.90
18408;DHT22;9330;52.210;21.174;2022-10-13T14:03:51;14.50;99.90
18408;DHT22;9330;52.210;21.174;2022-10-13T14:06:19;14.40;99.90
18408;DHT22;9330;52.210;21.174;2022-10-13T14:08:47;14.60;99.90
18408;DHT22;9330;52.210;21.174;2022-10-13T14:11:15;14.50;99.90
18408;DHT22;9330;52.210;21.174;2022-10-13T14:13:43;14.40;99.90
18408;DHT22;9330;52.210;21.174;2022-10-13T14:16:14;14.40;99.90
18408;DHT22;9330;52.210;21.174;2022-10-13T14:18:42;14.40;99.90
18408;DHT22;9330;52.210;21.174;2022-10-13T14:21:09;14.40;99.90
18408;DHT22;9330;52.210;21.174;2022-10-13T14:23:35;14.30;99.90
18408;DHT22;9330;52.210;21.174;2022-10-13T14:26:06;14.20;99.90
18408;DHT22;9330;52.210;21.174;2022-10-13T14:28:36;14.20;99.90
18408;DHT22;9330;52.210;21.174;2022-10-13T14:31:05;14.10;99.90
18408;DHT22;9330;52.210;21.174;2022-10-13T14:33:33;14.00;99.90
18408;DHT22;9330;52.210;21.174;2022-10-13T14:36:00;13.90;99.90
18408;DHT22;9330;52.210;21.174;2022-10-13T14:38:27;13.90;99.90
18408;DHT22;9330;52.210;21.174;2022-10-13T14:40:57;13.90;99.90
18408;DHT22;9330;52.210;21.174;2022-10-13T14:43:25;13.80;99.90
18408;DHT22;9330;52.210;21.174;2022-10-13T14:45:54;13.70;99.90
18408;DHT22;9330;52.210;21.174;2022-10-13T14:48:22;13.60;99.90
18408;DHT22;9330;52.210;21.174;2022-10-13T14:50:48;13.60;99.90
18408;DHT22;9330;52.210;21.174;2022-10-13T14:53:15;13.50;99.90
18408;DHT22;9330;52.210;21.174;2022-10-13T14:55:43;13.50;99.90
18408;DHT22;9330;52.210;21.174;2022-10-13T14:58:10;13.40;99.90
18408;DHT22;9330;52.210;21.174;2022-10-13T15:00:37;13.30;99.90
18408;DHT22;9330;52.210;21.174;2022-10-13T15:03:06;13.30;99.90
18408;DHT22;9330;52.210;21.174;2022-10-13T15:05:33;13.20;99.90
18408;DHT22;9330;52.210;21.174;2022-10-13T15:08:00;13.20;99.90
18408;DHT22;9330;52.210;21.174;2022-10-13T15:10:27;13.10;99.90
18408;DHT22;9330;52.210;21.174;2022-10-13T15:12:56;13.00;99.90
18408;DHT22;9330;52.210;21.174;2022-10-13T15:15:23;12.90;99.90
18408;DHT22;9330;52.210;21.174;2022-10-13T15:17:50;12.80;99.90
18408;DHT22;9330;52.210;21.174;2022-10-13T15:20:18;12.80;99.90
18408;DHT22;9330;52.210;21.174;2022-10-13T15:22:46;12.70;99.90
18408;DHT22;9330;52.210;21.174;2022-10-13T15:25:13;12.60;99.90
18408;DHT22;9330;52.210;21.174;2022-10-13T15:27:40;12.50;99.90
18408;DHT22;9330;52.210;21.174;2022-10-13T15:30:08;12.30;99.90
18408;DHT22;9330;52.210;21.174;2022-10-13T15:32:35;12.20;99.90
18408;DHT22;9330;52.210;21.174;2022-10-13T15:35:02;12.10;99.90
18408;DHT22;9330;52.210;21.174;2022-10-13T15:37:30;12.00;99.90
18408;DHT22;9330;52.210;21.174;2022-10-13T15:39:57;11.90;99.90
18408;DHT22;9330;52.210;21.174;2022-10-13T15:42:24;11.70;99.90
18408;DHT22;9330;52.210;21.174;2022-10-13T15:44:50;11.60;99.90
18408;DHT22;9330;52.210;21.174;2022-10-13T15:47:17;11.50;99.90
18408;DHT22;9330;52.210;21.174;2022-10-13T15:49:44;11.40;99.90
18408;DHT22;9330;52.210;21.174;2022-10-13T15:52:11;11.30;99.90
18408;DHT22;9330;52.210;21.174;2022-10-13T15:54:39;11.10;99.90
18408;DHT22;9330;52.210;21.174;2022-10-13T15:57:06;11.00;99.90
18408;DHT22;9330;52.210;21.174;2022-10-13T15:59:33;10.90;99.90
18408;DHT22;9330;52.210;21.174;2022-10-13T16:02:00;10.80;99.90
18408;DHT22;9330;52.210;21.174;2022-10-13T16:04:27;10.70;99.90